sensor_id;sensor_type;location;lat;lon;timestamp;P1;durP1;ratioP1;P2;durP2;ratioP2
10529;SDS011;5313;48.834;9.228;2022-12-20T00:02:03;30.10;;;16.87;;
10529;SDS011;5313;48.834;9.228;2022-12-20T00:04:29;25.57;;;15.87;;
10529;SDS011;5313;48.834;9.228;2022-12-20T00:06:54;27.70;;;16.63;;
10529;SDS011;5313;48.834;9.228;2022-12-20T00:09:20;26.97;;;17.07;;
10529;SDS011;5313;48.834;9.228;2022-12-20T00:11:46;32.37;;;17.83;;
10529;SDS011;5313;48.834;9.228;2022-12-20T00:14:11;30.93;;;17.23;;
10529;SDS011;5313;48.834;9.228;2022-12-20T00:16:37;32.00;;;17.60;;
10529;SDS011;5313;48.834;9.228;2022-12-20T00:19:03;28.63;;;17.27;;
10529;SDS011;5313;48.834;9.228;2022-12-20T00:21:31;29.10;;;17.17;;
10529;SDS011;5313;48.834;9.228;2022-12-20T00:23:57;26.50;;;17.27;;
10529;SDS011;5313;48.834;9.228;2022-12-20T00:26:24;28.43;;;17.27;;
10529;SDS011;5313;48.834;9.228;2022-12-20T00:28:52;28.17;;;17.13;;
10529;SDS011;5313;48.834;9.228;2022-12-20T00:31:18;28.20;;;16.73;;
10529;SDS011;5313;48.834;9.228;2022-12-20T00:33:46;29.57;;;16.70;;
10529;SDS011;5313;48.834;9.228;2022-12-20T00:36:13;27.90;;;17.50;;
10529;SDS011;5313;48.834;9.228;2022-12-20T00:38:39;24.50;;;15.67;;
10529;SDS011;5313;48.834;9.228;2022-12-20T00:41:06;27.10;;;16.83;;
10529;SDS011;5313;48.834;9.228;2022-12-20T00:43:34;29.37;;;17.03;;
10529;SDS011;5313;48.834;9.228;2022-12-20T00:46:00;25.67;;;15.80;;
10529;SDS011;5313;48.834;9.228;2022-12-20T00:48:26;26.77;;;16.27;;
10529;SDS011;5313;48.834;9.228;2022-12-20T00:50:57;23.87;;;16.23;;
10529;SDS011;5313;48.834;9.228;2022-12-20T00:53:24;27.87;;;16.30;;
10529;SDS011;5313;48.834;9.228;2022-12-20T00:55:49;26.13;;;16.60;;
10529;SDS011;5313;48.834;9.228;2022-12-20T00:58:15;26.37;;;15.93;;
10529;SDS011;5313;48.834;9.228;2022-12-20T01:00:40;24.93;;;15.33;;
10529;SDS011;5313;48.834;9.228;2022-12-20T01:03:06;24.77;;;16.13;;
10529;SDS011;5313;48.834;9.228;2022-12-20T01:05:32;25.23;;;15.70;;
10529;SDS011;5313;48.834;9.228;2022-12-20T01:07:57;26.00;;;15.67;;
10529;SDS011;5313;48.834;9.228;2022-12-20T01:10:23;24.47;;;15.57;;
10529;SDS011;5313;48.834;9.228;2022-12-20T01:12:49;25.93;;;15.80;;
10529;SDS011;5313;48.834;9.228;2022-12-20T01:15:14;26.37;;;14.20;;
10529;SDS011;5313;48.834;9.228;2022-12-20T01:17:40;25.23;;;15.03;;
10529;SDS011;5313;48.834;9.228;2022-12-20T01:20:06;23.80;;;15.60;;
10529;SDS011;5313;48.834;9.228;2022-12-20T01:22:32;27.00;;;15.20;;
10529;SDS011;5313;48.834;9.228;2022-12-20T01:24:57;25.17;;;14.27;;
10529;SDS011;5313;48.834;9.228;2022-12-20T01:27:23;23.50;;;13.97;;
10529;SDS011;5313;48.834;9.228;2022-12-20T01:29:49;25.40;;;14.03;;
10529;SDS011;5313;48.834;9.228;2022-12-20T01:32:15;22.07;;;13.67;;
10529;SDS011;5313;48.834;9.228;2022-12-20T01:34:40;22.50;;;12.87;;
10529;SDS011;5313;48.834;9.228;2022-12-20T01:37:06;22.20;;;13.50;;
10529;SDS011;5313;48.834;9.228;2022-12-20T01:39:31;19.77;;;12.93;;
10529;SDS011;5313;48.834;9.228;2022-12-20T01:41:57;20.77;;;11.43;;
10529;SDS011;5313;48.834;9.228;2022-12-20T01:46:48;25.80;;;14.80;;
10529;SDS011;5313;48.834;9.228;2022-12-20T01:49:28;21.50;;;13.03;;
10529;SDS011;5313;48.834;9.228;2022-12-20T01:51:59;22.27;;;13.73;;
10529;SDS011;5313;48.834;9.228;2022-12-20T01:54:38;21.70;;;12.70;;
10529;SDS011;5313;48.834;9.228;2022-12-20T01:57:12;19.00;;;12.33;;
10529;SDS011;5313;48.834;9.228;2022-12-20T01:59:40;20.87;;;12.67;;
10529;SDS011;5313;48.834;9.228;2022-12-20T02:02:08;20.73;;;12.73;;
10529;SDS011;5313;48.834;9.228;2022-12-20T02:04:36;21.43;;;13.47;;
10529;SDS011;5313;48.834;9.228;2022-12-20T02:07:02;23.37;;;13.90;;
10529;SDS011;5313;48.834;9.228;2022-12-20T02:09:29;21.80;;;12.90;;
10529;SDS011;5313;48.834;9.228;2022-12-20T02:15:00;20.53;;;12.70;;
10529;SDS011;5313;48.834;9.228;2022-12-20T02:30:59;20.30;;;12.43;;
10529;SDS011;5313;48.834;9.228;2022-12-20T02:33:29;20.33;;;12.90;;
10529;SDS011;5313;48.834;9.228;2022-12-20T02:35:55;20.37;;;11.10;;
10529;SDS011;5313;48.834;9.228;2022-12-20T02:38:31;20.77;;;12.17;;
10529;SDS011;5313;48.834;9.228;2022-12-20T02:41:01;21.83;;;13.47;;
10529;SDS011;5313;48.834;9.228;2022-12-20T02:43:31;23.80;;;13.73;;
10529;SDS011;5313;48.834;9.228;2022-12-20T02:46:16;20.27;;;12.30;;
10529;SDS011;5313;48.834;9.228;2022-12-20T02:48:44;23.03;;;13.77;;
10529;SDS011;5313;48.834;9.228;2022-12-20T02:51:12;23.37;;;13.40;;
10529;SDS011;5313;48.834;9.228;2022-12-20T02:53:40;19.77;;;12.10;;
10529;SDS011;5313;48.834;9.228;2022-12-20T02:58:47;21.47;;;13.27;;
10529;SDS011;5313;48.834;9.228;2022-12-20T03:01:18;20.87;;;12.40;;
10529;SDS011;5313;48.834;9.228;2022-12-20T03:03:48;21.53;;;12.27;;
10529;SDS011;5313;48.834;9.228;2022-12-20T03:06:16;20.33;;;12.23;;
10529;SDS011;5313;48.834;9.228;2022-12-20T03:08:41;20.00;;;12.27;;
10529;SDS011;5313;48.834;9.228;2022-12-20T03:11:07;20.37;;;13.10;;
10529;SDS011;5313;48.834;9.228;2022-12-20T03:13:32;20.27;;;12.10;;
10529;SDS011;5313;48.834;9.228;2022-12-20T03:15:58;19.43;;;12.40;;
10529;SDS011;5313;48.834;9.228;2022-12-20T03:18:23;23.60;;;13.03;;
10529;SDS011;5313;48.834;9.228;2022-12-20T03:20:49;19.63;;;12.07;;
10529;SDS011;5313;48.834;9.228;2022-12-20T03:23:14;19.43;;;12.17;;
10529;SDS011;5313;48.834;9.228;2022-12-20T03:25:40;21.93;;;11.63;;
10529;SDS011;5313;48.834;9.228;2022-12-20T03:28:05;21.73;;;12.63;;
10529;SDS011;5313;48.834;9.228;2022-12-20T03:30:31;20.60;;;12.33;;
10529;SDS011;5313;48.834;9.228;2022-12-20T03:32:57;21.17;;;12.30;;
10529;SDS011;5313;48.834;9.228;2022-12-20T03:35:22;18.60;;;11.23;;
10529;SDS011;5313;48.834;9.228;2022-12-20T03:37:48;18.13;;;11.17;;
10529;SDS011;5313;48.834;9.228;2022-12-20T03:40:14;17.07;;;10.83;;
10529;SDS011;5313;48.834;9.228;2022-12-20T03:42:40;17.77;;;10.57;;
10529;SDS011;5313;48.834;9.228;2022-12-20T03:45:06;16.67;;;10.53;;
10529;SDS011;5313;48.834;9.228;2022-12-20T03:47:32;17.17;;;10.47;;
10529;SDS011;5313;48.834;9.228;2022-12-20T03:49:58;18.43;;;10.57;;
10529;SDS011;5313;48.834;9.228;2022-12-20T03:52:23;20.83;;;12.23;;
10529;SDS011;5313;48.834;9.228;2022-12-20T03:54:49;20.63;;;13.00;;
10529;SDS011;5313;48.834;9.228;2022-12-20T03:57:14;18.40;;;12.33;;
10529;SDS011;5313;48.834;9.228;2022-12-20T03:59:40;20.90;;;13.40;;
10529;SDS011;5313;48.834;9.228;2022-12-20T04:02:05;21.70;;;12.77;;
10529;SDS011;5313;48.834;9.228;2022-12-20T04:04:31;18.23;;;11.77;;
10529;SDS011;5313;48.834;9.228;2022-12-20T04:06:57;18.03;;;11.60;;
10529;SDS011;5313;48.834;9.228;2022-12-20T04:09:22;18.77;;;12.37;;
10529;SDS011;5313;48.834;9.228;2022-12-20T04:11:48;20.60;;;13.10;;
10529;SDS011;5313;48.834;9.228;2022-12-20T04:14:13;21.80;;;12.70;;
10529;SDS011;5313;48.834;9.228;2022-12-20T04:16:39;19.93;;;11.97;;
10529;SDS011;5313;48.834;9.228;2022-12-20T04:19:05;22.73;;;13.23;;
10529;SDS011;5313;48.834;9.228;2022-12-20T04:21:31;22.50;;;12.77;;
10529;SDS011;5313;48.834;9.228;2022-12-20T04:23:59;25.33;;;13.70;;
10529;SDS011;5313;48.834;9.228;2022-12-20T04:26:25;22.67;;;13.27;;
10529;SDS011;5313;48.834;9.228;2022-12-20T04:28:52;22.13;;;12.70;;
10529;SDS011;5313;48.834;9.228;2022-12-20T04:31:18;16.97;;;12.03;;
10529;SDS011;5313;48.834;9.228;2022-12-20T04:33:44;21.37;;;13.33;;
10529;SDS011;5313;48.834;9.228;2022-12-20T04:36:11;20.07;;;12.30;;
10529;SDS011;5313;48.834;9.228;2022-12-20T04:38:37;21.20;;;12.43;;
10529;SDS011;5313;48.834;9.228;2022-12-20T04:41:02;19.60;;;12.57;;
10529;SDS011;5313;48.834;9.228;2022-12-20T04:43:28;21.90;;;12.57;;
10529;SDS011;5313;48.834;9.228;2022-12-20T04:45:54;21.13;;;13.17;;
10529;SDS011;5313;48.834;9.228;2022-12-20T04:48:23;20.00;;;12.53;;
10529;SDS011;5313;48.834;9.228;2022-12-20T04:50:51;19.30;;;12.20;;
10529;SDS011;5313;48.834;9.228;2022-12-20T04:53:17;19.03;;;12.63;;
10529;SDS011;5313;48.834;9.228;2022-12-20T04:56:01;17.57;;;12.07;;
10529;SDS011;5313;48.834;9.228;2022-12-20T04:58:27;21.50;;;11.23;;
10529;SDS011;5313;48.834;9.228;2022-12-20T05:00:53;16.20;;;11.00;;
10529;SDS011;5313;48.834;9.228;2022-12-20T05:03:19;14.83;;;9.60;;
10529;SDS011;5313;48.834;9.228;2022-12-20T05:05:46;14.80;;;9.63;;
10529;SDS011;5313;48.834;9.228;2022-12-20T05:08:11;16.30;;;10.13;;
10529;SDS011;5313;48.834;9.228;2022-12-20T05:10:37;14.73;;;9.60;;
10529;SDS011;5313;48.834;9.228;2022-12-20T05:13:03;15.33;;;10.37;;
10529;SDS011;5313;48.834;9.228;2022-12-20T05:15:29;18.63;;;10.43;;
10529;SDS011;5313;48.834;9.228;2022-12-20T05:17:54;19.67;;;11.37;;
10529;SDS011;5313;48.834;9.228;2022-12-20T05:20:27;19.20;;;11.70;;
10529;SDS011;5313;48.834;9.228;2022-12-20T05:22:53;20.07;;;11.93;;
10529;SDS011;5313;48.834;9.228;2022-12-20T05:25:38;19.10;;;11.87;;
10529;SDS011;5313;48.834;9.228;2022-12-20T05:28:25;20.53;;;12.30;;
10529;SDS011;5313;48.834;9.228;2022-12-20T05:30:51;20.47;;;12.60;;
10529;SDS011;5313;48.834;9.228;2022-12-20T05:33:16;20.97;;;12.50;;
10529;SDS011;5313;48.834;9.228;2022-12-20T05:35:42;20.23;;;13.07;;
10529;SDS011;5313;48.834;9.228;2022-12-20T05:38:07;21.57;;;12.97;;
10529;SDS011;5313;48.834;9.228;2022-12-20T05:40:33;23.03;;;14.07;;
10529;SDS011;5313;48.834;9.228;2022-12-20T05:42:59;20.53;;;12.70;;
10529;SDS011;5313;48.834;9.228;2022-12-20T05:45:25;18.30;;;11.30;;
10529;SDS011;5313;48.834;9.228;2022-12-20T05:47:51;18.13;;;11.93;;
10529;SDS011;5313;48.834;9.228;2022-12-20T05:50:16;19.90;;;12.00;;
10529;SDS011;5313;48.834;9.228;2022-12-20T05:52:42;20.63;;;12.17;;
10529;SDS011;5313;48.834;9.228;2022-12-20T05:55:07;21.27;;;12.33;;
10529;SDS011;5313;48.834;9.228;2022-12-20T05:57:34;18.97;;;11.83;;
10529;SDS011;5313;48.834;9.228;2022-12-20T06:00:00;22.00;;;12.43;;
10529;SDS011;5313;48.834;9.228;2022-12-20T06:02:26;21.10;;;12.63;;
10529;SDS011;5313;48.834;9.228;2022-12-20T06:04:52;19.33;;;11.70;;
10529;SDS011;5313;48.834;9.228;2022-12-20T06:07:17;20.70;;;12.23;;
10529;SDS011;5313;48.834;9.228;2022-12-20T06:09:46;18.90;;;11.07;;
10529;SDS011;5313;48.834;9.228;2022-12-20T06:12:11;19.50;;;11.90;;
10529;SDS011;5313;48.834;9.228;2022-12-20T06:14:37;18.50;;;11.73;;
10529;SDS011;5313;48.834;9.228;2022-12-20T06:17:03;18.20;;;11.63;;
10529;SDS011;5313;48.834;9.228;2022-12-20T06:19:29;18.40;;;11.43;;
10529;SDS011;5313;48.834;9.228;2022-12-20T06:21:54;19.90;;;11.40;;
10529;SDS011;5313;48.834;9.228;2022-12-20T06:24:20;17.37;;;10.90;;
10529;SDS011;5313;48.834;9.228;2022-12-20T06:26:49;17.80;;;11.50;;
10529;SDS011;5313;48.834;9.228;2022-12-20T06:29:15;16.00;;;10.07;;
10529;SDS011;5313;48.834;9.228;2022-12-20T06:31:41;17.43;;;11.43;;
10529;SDS011;5313;48.834;9.228;2022-12-20T06:34:07;19.13;;;11.00;;
10529;SDS011;5313;48.834;9.228;2022-12-20T06:36:33;19.17;;;11.17;;
10529;SDS011;5313;48.834;9.228;2022-12-20T06:38:59;18.43;;;11.37;;
10529;SDS011;5313;48.834;9.228;2022-12-20T06:41:25;19.83;;;11.10;;
10529;SDS011;5313;48.834;9.228;2022-12-20T06:43:50;17.43;;;11.03;;
10529;SDS011;5313;48.834;9.228;2022-12-20T06:46:16;18.80;;;11.70;;
10529;SDS011;5313;48.834;9.228;2022-12-20T06:48:41;22.20;;;11.73;;
10529;SDS011;5313;48.834;9.228;2022-12-20T06:51:07;19.10;;;11.97;;
10529;SDS011;5313;48.834;9.228;2022-12-20T06:53:32;19.37;;;11.20;;
10529;SDS011;5313;48.834;9.228;2022-12-20T06:55:58;18.63;;;11.60;;
10529;SDS011;5313;48.834;9.228;2022-12-20T06:58:24;21.20;;;11.03;;
10529;SDS011;5313;48.834;9.228;2022-12-20T07:00:49;20.90;;;11.17;;
10529;SDS011;5313;48.834;9.228;2022-12-20T07:03:14;19.30;;;11.73;;
10529;SDS011;5313;48.834;9.228;2022-12-20T07:05:40;17.87;;;11.00;;
10529;SDS011;5313;48.834;9.228;2022-12-20T07:08:06;17.50;;;11.60;;
10529;SDS011;5313;48.834;9.228;2022-12-20T07:10:32;21.93;;;12.37;;
10529;SDS011;5313;48.834;9.228;2022-12-20T07:12:59;29.90;;;17.97;;
10529;SDS011;5313;48.834;9.228;2022-12-20T07:15:25;18.37;;;11.57;;
10529;SDS011;5313;48.834;9.228;2022-12-20T07:17:50;32.13;;;18.37;;
10529;SDS011;5313;48.834;9.228;2022-12-20T07:20:16;25.67;;;15.10;;
10529;SDS011;5313;48.834;9.228;2022-12-20T07:22:42;25.27;;;15.17;;
10529;SDS011;5313;48.834;9.228;2022-12-20T07:25:08;18.77;;;11.83;;
10529;SDS011;5313;48.834;9.228;2022-12-20T07:27:35;21.33;;;13.77;;
10529;SDS011;5313;48.834;9.228;2022-12-20T07:30:00;17.80;;;10.77;;
10529;SDS011;5313;48.834;9.228;2022-12-20T07:32:26;18.10;;;10.63;;
10529;SDS011;5313;48.834;9.228;2022-12-20T07:34:51;20.10;;;12.33;;
10529;SDS011;5313;48.834;9.228;2022-12-20T07:37:17;22.57;;;11.10;;
10529;SDS011;5313;48.834;9.228;2022-12-20T07:39:43;19.53;;;12.30;;
10529;SDS011;5313;48.834;9.228;2022-12-20T07:42:08;17.87;;;10.70;;
10529;SDS011;5313;48.834;9.228;2022-12-20T07:44:34;17.00;;;11.87;;
10529;SDS011;5313;48.834;9.228;2022-12-20T07:47:00;20.13;;;11.23;;
10529;SDS011;5313;48.834;9.228;2022-12-20T07:49:25;18.70;;;10.93;;
10529;SDS011;5313;48.834;9.228;2022-12-20T07:51:52;17.23;;;11.00;;
10529;SDS011;5313;48.834;9.228;2022-12-20T07:54:32;19.40;;;10.70;;
10529;SDS011;5313;48.834;9.228;2022-12-20T07:57:09;18.83;;;11.37;;
10529;SDS011;5313;48.834;9.228;2022-12-20T07:59:40;17.97;;;11.70;;
10529;SDS011;5313;48.834;9.228;2022-12-20T08:02:12;17.17;;;10.83;;
10529;SDS011;5313;48.834;9.228;2022-12-20T08:04:42;17.63;;;11.03;;
10529;SDS011;5313;48.834;9.228;2022-12-20T08:07:08;21.10;;;13.13;;
10529;SDS011;5313;48.834;9.228;2022-12-20T08:09:35;19.83;;;12.27;;
10529;SDS011;5313;48.834;9.228;2022-12-20T08:12:06;20.23;;;12.50;;
10529;SDS011;5313;48.834;9.228;2022-12-20T08:14:34;18.37;;;12.37;;
10529;SDS011;5313;48.834;9.228;2022-12-20T08:17:00;22.80;;;12.47;;
10529;SDS011;5313;48.834;9.228;2022-12-20T08:19:25;19.50;;;11.67;;
10529;SDS011;5313;48.834;9.228;2022-12-20T08:21:51;18.87;;;11.50;;
10529;SDS011;5313;48.834;9.228;2022-12-20T08:24:16;16.30;;;11.50;;
10529;SDS011;5313;48.834;9.228;2022-12-20T08:26:42;20.43;;;11.93;;
10529;SDS011;5313;48.834;9.228;2022-12-20T08:29:07;19.90;;;11.60;;
10529;SDS011;5313;48.834;9.228;2022-12-20T08:31:37;19.67;;;11.63;;
10529;SDS011;5313;48.834;9.228;2022-12-20T08:34:04;18.63;;;11.60;;
10529;SDS011;5313;48.834;9.228;2022-12-20T08:36:30;18.60;;;11.60;;
10529;SDS011;5313;48.834;9.228;2022-12-20T08:38:56;20.87;;;11.70;;
10529;SDS011;5313;48.834;9.228;2022-12-20T08:41:21;17.70;;;11.57;;
10529;SDS011;5313;48.834;9.228;2022-12-20T08:43:47;16.90;;;11.83;;
10529;SDS011;5313;48.834;9.228;2022-12-20T08:46:12;19.23;;;11.80;;
10529;SDS011;5313;48.834;9.228;2022-12-20T08:48:38;18.73;;;11.27;;
10529;SDS011;5313;48.834;9.228;2022-12-20T08:51:05;16.30;;;11.20;;
10529;SDS011;5313;48.834;9.228;2022-12-20T08:53:32;16.40;;;10.37;;
10529;SDS011;5313;48.834;9.228;2022-12-20T08:56:03;19.07;;;10.43;;
10529;SDS011;5313;48.834;9.228;2022-12-20T08:58:29;8.43;;;5.60;;
10529;SDS011;5313;48.834;9.228;2022-12-20T09:00:57;10.23;;;6.57;;
10529;SDS011;5313;48.834;9.228;2022-12-20T09:03:24;9.07;;;5.50;;
10529;SDS011;5313;48.834;9.228;2022-12-20T09:05:50;7.77;;;5.03;;
10529;SDS011;5313;48.834;9.228;2022-12-20T09:08:16;6.47;;;4.50;;
10529;SDS011;5313;48.834;9.228;2022-12-20T09:10:41;7.33;;;4.87;;
10529;SDS011;5313;48.834;9.228;2022-12-20T09:13:07;5.97;;;4.43;;
10529;SDS011;5313;48.834;9.228;2022-12-20T09:15:34;7.90;;;5.00;;
10529;SDS011;5313;48.834;9.228;2022-12-20T09:18:00;7.93;;;5.47;;
10529;SDS011;5313;48.834;9.228;2022-12-20T09:20:26;12.23;;;7.80;;
10529;SDS011;5313;48.834;9.228;2022-12-20T09:22:52;11.10;;;7.27;;
10529;SDS011;5313;48.834;9.228;2022-12-20T09:25:18;9.03;;;6.53;;
10529;SDS011;5313;48.834;9.228;2022-12-20T09:27:43;10.00;;;6.40;;
10529;SDS011;5313;48.834;9.228;2022-12-20T09:30:09;9.17;;;6.37;;
10529;SDS011;5313;48.834;9.228;2022-12-20T09:32:35;12.90;;;8.13;;
10529;SDS011;5313;48.834;9.228;2022-12-20T09:35:01;11.23;;;7.43;;
10529;SDS011;5313;48.834;9.228;2022-12-20T09:37:28;14.77;;;8.07;;
10529;SDS011;5313;48.834;9.228;2022-12-20T09:39:55;14.33;;;8.77;;
10529;SDS011;5313;48.834;9.228;2022-12-20T09:42:21;11.60;;;8.00;;
10529;SDS011;5313;48.834;9.228;2022-12-20T09:44:50;13.93;;;7.77;;
10529;SDS011;5313;48.834;9.228;2022-12-20T09:47:18;14.43;;;7.90;;
10529;SDS011;5313;48.834;9.228;2022-12-20T09:49:47;10.40;;;7.27;;
10529;SDS011;5313;48.834;9.228;2022-12-20T09:55:07;15.07;;;8.07;;
10529;SDS011;5313;48.834;9.228;2022-12-20T09:58:01;14.40;;;8.17;;
10529;SDS011;5313;48.834;9.228;2022-12-20T10:00:43;11.60;;;7.47;;
10529;SDS011;5313;48.834;9.228;2022-12-20T10:03:11;9.57;;;7.13;;
10529;SDS011;5313;48.834;9.228;2022-12-20T10:05:47;10.47;;;6.73;;
10529;SDS011;5313;48.834;9.228;2022-12-20T10:08:22;10.30;;;6.97;;
10529;SDS011;5313;48.834;9.228;2022-12-20T10:20:39;8.47;;;6.00;;
10529;SDS011;5313;48.834;9.228;2022-12-20T10:23:20;8.27;;;5.77;;
10529;SDS011;5313;48.834;9.228;2022-12-20T10:25:55;9.50;;;5.90;;
10529;SDS011;5313;48.834;9.228;2022-12-20T10:28:25;7.97;;;5.13;;
10529;SDS011;5313;48.834;9.228;2022-12-20T10:30:53;10.33;;;5.67;;
10529;SDS011;5313;48.834;9.228;2022-12-20T10:33:20;9.67;;;5.70;;
10529;SDS011;5313;48.834;9.228;2022-12-20T10:35:47;9.53;;;5.50;;
10529;SDS011;5313;48.834;9.228;2022-12-20T10:38:14;8.00;;;5.00;;
10529;SDS011;5313;48.834;9.228;2022-12-20T10:40:43;15.63;;;9.07;;
10529;SDS011;5313;48.834;9.228;2022-12-20T10:43:14;15.30;;;9.80;;
10529;SDS011;5313;48.834;9.228;2022-12-20T10:45:42;13.70;;;9.13;;
10529;SDS011;5313;48.834;9.228;2022-12-20T10:48:37;11.53;;;7.67;;
10529;SDS011;5313;48.834;9.228;2022-12-20T10:56:27;9.97;;;6.50;;
10529;SDS011;5313;48.834;9.228;2022-12-20T10:59:12;9.77;;;5.23;;
10529;SDS011;5313;48.834;9.228;2022-12-20T11:01:53;7.70;;;5.13;;
10529;SDS011;5313;48.834;9.228;2022-12-20T11:06:50;7.37;;;4.70;;
10529;SDS011;5313;48.834;9.228;2022-12-20T11:09:20;7.30;;;4.47;;
10529;SDS011;5313;48.834;9.228;2022-12-20T11:14:27;6.23;;;4.50;;
10529;SDS011;5313;48.834;9.228;2022-12-20T11:16:53;5.87;;;4.20;;
10529;SDS011;5313;48.834;9.228;2022-12-20T11:22:00;8.23;;;4.67;;
10529;SDS011;5313;48.834;9.228;2022-12-20T11:31:11;6.80;;;4.33;;
10529;SDS011;5313;48.834;9.228;2022-12-20T11:39:29;8.27;;;4.63;;
10529;SDS011;5313;48.834;9.228;2022-12-20T11:41:58;7.53;;;4.87;;
10529;SDS011;5313;48.834;9.228;2022-12-20T11:50:10;7.07;;;4.30;;
10529;SDS011;5313;48.834;9.228;2022-12-20T11:52:59;8.00;;;4.80;;
10529;SDS011;5313;48.834;9.228;2022-12-20T11:55:34;8.43;;;5.00;;
10529;SDS011;5313;48.834;9.228;2022-12-20T12:00:38;9.00;;;5.10;;
10529;SDS011;5313;48.834;9.228;2022-12-20T12:03:13;5.57;;;4.27;;
10529;SDS011;5313;48.834;9.228;2022-12-20T12:05:47;10.60;;;5.30;;
10529;SDS011;5313;48.834;9.228;2022-12-20T12:08:17;8.50;;;4.73;;
10529;SDS011;5313;48.834;9.228;2022-12-20T12:10:55;6.93;;;4.87;;
10529;SDS011;5313;48.834;9.228;2022-12-20T12:13:26;11.47;;;8.20;;
10529;SDS011;5313;48.834;9.228;2022-12-20T12:16:03;12.07;;;8.30;;
10529;SDS011;5313;48.834;9.228;2022-12-20T12:18:35;11.63;;;8.10;;
10529;SDS011;5313;48.834;9.228;2022-12-20T12:21:08;11.30;;;8.17;;
10529;SDS011;5313;48.834;9.228;2022-12-20T12:26:44;15.50;;;9.87;;
10529;SDS011;5313;48.834;9.228;2022-12-20T12:29:13;8.63;;;5.20;;
10529;SDS011;5313;48.834;9.228;2022-12-20T12:36:57;9.70;;;5.10;;
10529;SDS011;5313;48.834;9.228;2022-12-20T12:45:04;9.87;;;7.37;;
10529;SDS011;5313;48.834;9.228;2022-12-20T12:47:47;9.70;;;7.37;;
10529;SDS011;5313;48.834;9.228;2022-12-20T12:50:20;11.60;;;7.53;;
10529;SDS011;5313;48.834;9.228;2022-12-20T12:52:51;10.00;;;6.43;;
10529;SDS011;5313;48.834;9.228;2022-12-20T12:58:51;10.77;;;6.77;;
10529;SDS011;5313;48.834;9.228;2022-12-20T13:01:03;8.03;;;5.67;;
10529;SDS011;5313;48.834;9.228;2022-12-20T13:03:36;9.07;;;6.60;;
10529;SDS011;5313;48.834;9.228;2022-12-20T13:11:27;6.63;;;4.17;;
10529;SDS011;5313;48.834;9.228;2022-12-20T13:16:43;7.30;;;4.27;;
10529;SDS011;5313;48.834;9.228;2022-12-20T13:19:12;7.00;;;4.60;;
10529;SDS011;5313;48.834;9.228;2022-12-20T13:21:43;7.70;;;4.63;;
10529;SDS011;5313;48.834;9.228;2022-12-20T13:27:01;8.33;;;5.50;;
10529;SDS011;5313;48.834;9.228;2022-12-20T13:29:42;12.80;;;6.67;;
10529;SDS011;5313;48.834;9.228;2022-12-20T13:40:49;10.23;;;5.73;;
10529;SDS011;5313;48.834;9.228;2022-12-20T13:45:47;8.93;;;4.97;;
10529;SDS011;5313;48.834;9.228;2022-12-20T13:48:17;7.47;;;4.90;;
10529;SDS011;5313;48.834;9.228;2022-12-20T13:50:53;7.60;;;4.87;;
10529;SDS011;5313;48.834;9.228;2022-12-20T13:53:21;8.77;;;5.30;;
10529;SDS011;5313;48.834;9.228;2022-12-20T13:55:49;7.07;;;4.03;;
10529;SDS011;5313;48.834;9.228;2022-12-20T13:58:18;7.37;;;3.87;;
10529;SDS011;5313;48.834;9.228;2022-12-20T14:00:52;7.33;;;4.57;;
10529;SDS011;5313;48.834;9.228;2022-12-20T14:03:26;10.17;;;6.10;;
10529;SDS011;5313;48.834;9.228;2022-12-20T14:05:57;13.27;;;8.13;;
10529;SDS011;5313;48.834;9.228;2022-12-20T14:08:29;9.63;;;6.83;;
10529;SDS011;5313;48.834;9.228;2022-12-20T14:11:07;10.23;;;6.97;;
10529;SDS011;5313;48.834;9.228;2022-12-20T14:13:34;9.37;;;6.67;;
10529;SDS011;5313;48.834;9.228;2022-12-20T14:16:08;14.53;;;8.43;;
10529;SDS011;5313;48.834;9.228;2022-12-20T14:18:38;10.70;;;6.53;;
10529;SDS011;5313;48.834;9.228;2022-12-20T14:21:04;8.77;;;5.87;;
10529;SDS011;5313;48.834;9.228;2022-12-20T14:23:33;5.57;;;3.90;;
10529;SDS011;5313;48.834;9.228;2022-12-20T14:26:03;8.87;;;4.93;;
10529;SDS011;5313;48.834;9.228;2022-12-20T14:31:00;7.47;;;4.30;;
10529;SDS011;5313;48.834;9.228;2022-12-20T14:33:45;7.53;;;4.63;;
10529;SDS011;5313;48.834;9.228;2022-12-20T14:38:43;7.37;;;4.43;;
10529;SDS011;5313;48.834;9.228;2022-12-20T14:44:02;6.27;;;4.33;;
10529;SDS011;5313;48.834;9.228;2022-12-20T14:46:39;8.53;;;4.53;;
10529;SDS011;5313;48.834;9.228;2022-12-20T14:54:41;5.97;;;3.97;;
10529;SDS011;5313;48.834;9.228;2022-12-20T14:57:37;6.00;;;4.40;;
10529;SDS011;5313;48.834;9.228;2022-12-20T15:00:28;6.70;;;4.50;;
10529;SDS011;5313;48.834;9.228;2022-12-20T15:08:13;7.33;;;4.93;;
10529;SDS011;5313;48.834;9.228;2022-12-20T15:13:45;10.87;;;6.27;;
10529;SDS011;5313;48.834;9.228;2022-12-20T15:16:15;29.63;;;14.87;;
10529;SDS011;5313;48.834;9.228;2022-12-20T15:18:43;25.13;;;13.07;;
10529;SDS011;5313;48.834;9.228;2022-12-20T15:23:45;9.53;;;4.50;;
10529;SDS011;5313;48.834;9.228;2022-12-20T15:26:15;8.73;;;5.17;;
10529;SDS011;5313;48.834;9.228;2022-12-20T15:28:41;7.27;;;4.67;;
10529;SDS011;5313;48.834;9.228;2022-12-20T15:31:11;9.10;;;5.77;;
10529;SDS011;5313;48.834;9.228;2022-12-20T15:33:38;9.80;;;7.20;;
10529;SDS011;5313;48.834;9.228;2022-12-20T15:36:05;12.10;;;7.90;;
10529;SDS011;5313;48.834;9.228;2022-12-20T15:38:33;14.50;;;8.60;;
10529;SDS011;5313;48.834;9.228;2022-12-20T15:41:00;13.63;;;9.27;;
10529;SDS011;5313;48.834;9.228;2022-12-20T15:43:28;16.37;;;10.73;;
10529;SDS011;5313;48.834;9.228;2022-12-20T15:46:01;13.23;;;7.57;;
10529;SDS011;5313;48.834;9.228;2022-12-20T15:48:27;15.87;;;8.70;;
10529;SDS011;5313;48.834;9.228;2022-12-20T15:50:53;14.23;;;8.53;;
10529;SDS011;5313;48.834;9.228;2022-12-20T15:53:24;12.57;;;8.17;;
10529;SDS011;5313;48.834;9.228;2022-12-20T15:55:56;20.60;;;11.30;;
10529;SDS011;5313;48.834;9.228;2022-12-20T15:58:22;17.50;;;10.87;;
10529;SDS011;5313;48.834;9.228;2022-12-20T16:00:49;18.77;;;11.33;;
10529;SDS011;5313;48.834;9.228;2022-12-20T16:03:28;15.10;;;8.73;;
10529;SDS011;5313;48.834;9.228;2022-12-20T16:05:56;11.40;;;7.23;;
10529;SDS011;5313;48.834;9.228;2022-12-20T16:08:21;11.33;;;6.77;;
10529;SDS011;5313;48.834;9.228;2022-12-20T16:10:48;9.17;;;5.60;;
10529;SDS011;5313;48.834;9.228;2022-12-20T16:13:21;10.20;;;6.33;;
10529;SDS011;5313;48.834;9.228;2022-12-20T16:15:48;8.57;;;6.20;;
10529;SDS011;5313;48.834;9.228;2022-12-20T16:18:14;8.13;;;5.77;;
10529;SDS011;5313;48.834;9.228;2022-12-20T16:20:40;8.20;;;5.33;;
10529;SDS011;5313;48.834;9.228;2022-12-20T16:23:10;9.73;;;5.53;;
10529;SDS011;5313;48.834;9.228;2022-12-20T16:25:41;9.00;;;5.70;;
10529;SDS011;5313;48.834;9.228;2022-12-20T16:28:06;7.77;;;5.50;;
10529;SDS011;5313;48.834;9.228;2022-12-20T16:30:32;7.87;;;5.10;;
10529;SDS011;5313;48.834;9.228;2022-12-20T16:32:58;10.67;;;5.90;;
10529;SDS011;5313;48.834;9.228;2022-12-20T16:37:55;11.10;;;5.93;;
10529;SDS011;5313;48.834;9.228;2022-12-20T16:40:22;11.93;;;8.00;;
10529;SDS011;5313;48.834;9.228;2022-12-20T16:42:49;11.50;;;8.40;;
10529;SDS011;5313;48.834;9.228;2022-12-20T16:45:24;10.87;;;8.20;;
10529;SDS011;5313;48.834;9.228;2022-12-20T16:47:52;13.17;;;8.70;;
10529;SDS011;5313;48.834;9.228;2022-12-20T16:50:19;15.00;;;8.50;;
10529;SDS011;5313;48.834;9.228;2022-12-20T16:52:46;15.00;;;8.70;;
10529;SDS011;5313;48.834;9.228;2022-12-20T16:55:24;17.20;;;9.57;;
10529;SDS011;5313;48.834;9.228;2022-12-20T16:57:51;17.23;;;8.93;;
10529;SDS011;5313;48.834;9.228;2022-12-20T17:00:21;11.10;;;6.50;;
10529;SDS011;5313;48.834;9.228;2022-12-20T17:02:49;14.00;;;7.93;;
10529;SDS011;5313;48.834;9.228;2022-12-20T17:07:52;9.23;;;5.83;;